sensor_id;sensor_type;location;lat;lon;timestamp;pressure;altitude;pressure_sealevel;temperature;humidity
72486;BME280;60509;47.308;-122.428;2022-09-09T00:00:31;101049.32;;;22.68;16.99
72486;BME280;60509;47.308;-122.428;2022-09-09T00:03:00;101050.28;;;23.46;16.62
72486;BME280;60509;47.308;-122.428;2022-09-09T00:05:26;101047.60;;;24.66;15.50
72486;BME280;60509;47.308;-122.428;2022-09-09T00:07:46;101050.82;;;22.98;17.01
72486;BME280;60509;47.308;-122.428;2022-09-09T00:10:17;101055.43;;;24.37;15.80
72486;BME280;60509;47.308;-122.428;2022-09-09T00:12:37;101049.97;;;24.84;15.32
72486;BME280;60509;47.308;-122.428;2022-09-09T00:15:04;101050.75;;;23.72;16.04
72486;BME280;60509;47.308;-122.428;2022-09-09T00:17:37;101048.54;;;24.68;15.16
72486;BME280;60509;47.308;-122.428;2022-09-09T00:19:53;101052.02;;;23.83;15.89
72486;BME280;60509;47.308;-122.428;2022-09-09T00:22:18;101048.08;;;24.44;15.75
72486;BME280;60509;47.308;-122.428;2022-09-09T00:24:44;101045.16;;;23.63;15.81
72486;BME280;60509;47.308;-122.428;2022-09-09T00:27:08;101042.09;;;22.87;16.29
72486;BME280;60509;47.308;-122.428;2022-09-09T00:29:35;101039.17;;;23.67;16.08
72486;BME280;60509;47.308;-122.428;2022-09-09T00:31:59;101035.85;;;23.47;16.27
72486;BME280;60509;47.308;-122.428;2022-09-09T00:34:24;101032.13;;;23.20;15.98
72486;BME280;60509;47.308;-122.428;2022-09-09T00:36:50;101027.63;;;23.99;15.41
72486;BME280;60509;47.308;-122.428;2022-09-09T00:41:48;101022.51;;;25.36;14.20
72486;BME280;60509;47.308;-122.428;2022-09-09T00:44:11;101018.31;;;23.83;15.58
72486;BME280;60509;47.308;-122.428;2022-09-09T00:46:44;101015.22;;;21.61;17.27
72486;BME280;60509;47.308;-122.428;2022-09-09T00:49:02;101016.26;;;21.62;17.28
72486;BME280;60509;47.308;-122.428;2022-09-09T00:51:25;101018.02;;;23.04;16.50
72486;BME280;60509;47.308;-122.428;2022-09-09T00:54:12;101013.16;;;21.95;17.05
72486;BME280;60509;47.308;-122.428;2022-09-09T00:56:14;101013.28;;;22.82;16.45
72486;BME280;60509;47.308;-122.428;2022-09-09T00:58:35;101008.29;;;20.30;17.62
72486;BME280;60509;47.308;-122.428;2022-09-09T01:01:04;100996.10;;;21.96;16.90
72486;BME280;60509;47.308;-122.428;2022-09-09T01:03:33;100999.61;;;20.23;17.15
72486;BME280;60509;47.308;-122.428;2022-09-09T01:06:00;101003.52;;;22.49;16.26
72486;BME280;60509;47.308;-122.428;2022-09-09T01:08:35;101007.31;;;22.62;15.62
72486;BME280;60509;47.308;-122.428;2022-09-09T01:10:48;101004.88;;;23.29;15.02
72486;BME280;60509;47.308;-122.428;2022-09-09T01:13:15;101001.16;;;24.13;14.31
72486;BME280;60509;47.308;-122.428;2022-09-09T01:15:33;100997.35;;;23.56;14.45
72486;BME280;60509;47.308;-122.428;2022-09-09T01:18:03;100998.15;;;23.01;14.81
72486;BME280;60509;47.308;-122.428;2022-09-09T01:20:25;100994.53;;;23.89;14.75
72486;BME280;60509;47.308;-122.428;2022-09-09T01:23:00;100996.18;;;23.26;15.69
72486;BME280;60509;47.308;-122.428;2022-09-09T01:25:28;100994.51;;;21.94;16.28
72486;BME280;60509;47.308;-122.428;2022-09-09T01:27:40;100990.48;;;23.67;15.63
72486;BME280;60509;47.308;-122.428;2022-09-09T01:30:10;100992.80;;;22.88;15.62
72486;BME280;60509;47.308;-122.428;2022-09-09T01:32:41;100992.83;;;19.85;17.08
72486;BME280;60509;47.308;-122.428;2022-09-09T01:34:55;100987.54;;;21.58;17.00
72486;BME280;60509;47.308;-122.428;2022-09-09T01:37:20;100985.33;;;20.69;17.37
72486;BME280;60509;47.308;-122.428;2022-09-09T01:39:46;100982.22;;;21.81;16.92
72486;BME280;60509;47.308;-122.428;2022-09-09T01:42:14;100982.31;;;20.84;18.08
72486;BME280;60509;47.308;-122.428;2022-09-09T01:44:37;100984.54;;;22.38;18.10
72486;BME280;60509;47.308;-122.428;2022-09-09T01:47:02;100978.48;;;20.12;18.86
72486;BME280;60509;47.308;-122.428;2022-09-09T01:54:05;100974.89;;;17.81;21.36
72486;BME280;60509;47.308;-122.428;2022-09-09T01:56:28;100974.95;;;15.74;23.19
72486;BME280;60509;47.308;-122.428;2022-09-09T01:58:57;100971.53;;;14.28;24.81
72486;BME280;60509;47.308;-122.428;2022-09-09T02:01:15;100968.99;;;14.86;25.27
72486;BME280;60509;47.308;-122.428;2022-09-09T02:03:35;100970.60;;;15.75;25.63
72486;BME280;60509;47.308;-122.428;2022-09-09T02:06:18;100966.42;;;15.50;25.81
72486;BME280;60509;47.308;-122.428;2022-09-09T02:08:32;100965.63;;;15.38;26.30
72486;BME280;60509;47.308;-122.428;2022-09-09T02:10:58;100964.97;;;13.98;27.33
72486;BME280;60509;47.308;-122.428;2022-09-09T02:13:20;100963.22;;;12.61;28.28
72486;BME280;60509;47.308;-122.428;2022-09-09T02:15:47;100960.12;;;14.55;27.37
72486;BME280;60509;47.308;-122.428;2022-09-09T02:18:09;100959.61;;;11.63;29.81
72486;BME280;60509;47.308;-122.428;2022-09-09T02:20:36;100955.32;;;14.10;28.57
72486;BME280;60509;47.308;-122.428;2022-09-09T02:23:02;100957.82;;;13.98;28.86
72486;BME280;60509;47.308;-122.428;2022-09-09T02:25:28;100960.66;;;12.82;29.99
72486;BME280;60509;47.308;-122.428;2022-09-09T02:27:52;100959.37;;;12.12;31.77
72486;BME280;60509;47.308;-122.428;2022-09-09T02:30:18;100959.83;;;12.40;31.79
72486;BME280;60509;47.308;-122.428;2022-09-09T02:32:44;100959.15;;;11.46;32.85
72486;BME280;60509;47.308;-122.428;2022-09-09T02:35:10;100956.70;;;11.49;33.37
72486;BME280;60509;47.308;-122.428;2022-09-09T02:37:38;100952.76;;;11.01;34.91
72486;BME280;60509;47.308;-122.428;2022-09-09T02:40:01;100956.30;;;9.93;36.12
72486;BME280;60509;47.308;-122.428;2022-09-09T02:42:26;100953.24;;;9.75;36.40
72486;BME280;60509;47.308;-122.428;2022-09-09T02:44:52;100953.79;;;10.61;35.95
72486;BME280;60509;47.308;-122.428;2022-09-09T02:47:27;100951.24;;;9.24;36.89
72486;BME280;60509;47.308;-122.428;2022-09-09T02:49:51;100953.12;;;8.84;37.52
72486;BME280;60509;47.308;-122.428;2022-09-09T02:52:14;100957.58;;;8.71;38.32
72486;BME280;60509;47.308;-122.428;2022-09-09T02:54:38;100956.07;;;10.11;36.60
72486;BME280;60509;47.308;-122.428;2022-09-09T02:57:06;100959.92;;;9.81;37.54
72486;BME280;60509;47.308;-122.428;2022-09-09T02:59:28;100959.91;;;9.76;38.16
72486;BME280;60509;47.308;-122.428;2022-09-09T03:01:53;100960.86;;;9.24;38.83
72486;BME280;60509;47.308;-122.428;2022-09-09T03:04:19;100963.03;;;7.57;39.99
72486;BME280;60509;47.308;-122.428;2022-09-09T03:06:45;100959.03;;;8.17;39.36
72486;BME280;60509;47.308;-122.428;2022-09-09T03:09:11;100963.51;;;7.70;40.23
72486;BME280;60509;47.308;-122.428;2022-09-09T03:11:42;100964.43;;;7.47;40.30
72486;BME280;60509;47.308;-122.428;2022-09-09T03:14:03;100964.10;;;7.08;41.35
72486;BME280;60509;47.308;-122.428;2022-09-09T03:16:29;100965.23;;;6.45;42.51
72486;BME280;60509;47.308;-122.428;2022-09-09T03:18:55;100963.57;;;7.58;40.94
72486;BME280;60509;47.308;-122.428;2022-09-09T03:21:21;100967.27;;;6.90;41.62
72486;BME280;60509;47.308;-122.428;2022-09-09T03:23:47;100961.95;;;8.05;40.55
72486;BME280;60509;47.308;-122.428;2022-09-09T03:26:13;100962.09;;;7.37;41.26
72486;BME280;60509;47.308;-122.428;2022-09-09T03:28:39;100963.16;;;7.28;41.37
72486;BME280;60509;47.308;-122.428;2022-09-09T03:31:05;100963.05;;;6.52;42.19
72486;BME280;60509;47.308;-122.428;2022-09-09T03:33:31;100962.24;;;5.99;43.34
72486;BME280;60509;47.308;-122.428;2022-09-09T03:35:57;100963.35;;;6.39;43.93
72486;BME280;60509;47.308;-122.428;2022-09-09T03:38:23;100961.67;;;6.78;43.53
72486;BME280;60509;47.308;-122.428;2022-09-09T03:40:50;100966.11;;;5.67;44.25
72486;BME280;60509;47.308;-122.428;2022-09-09T03:43:15;100965.31;;;7.35;42.20
72486;BME280;60509;47.308;-122.428;2022-09-09T03:45:45;100962.89;;;6.60;43.10
72486;BME280;60509;47.308;-122.428;2022-09-09T03:48:07;100964.04;;;6.93;42.86
72486;BME280;60509;47.308;-122.428;2022-09-09T03:50:33;100964.61;;;6.88;42.90
72486;BME280;60509;47.308;-122.428;2022-09-09T03:52:59;100964.73;;;5.59;44.59
72486;BME280;60509;47.308;-122.428;2022-09-09T03:55:25;100964.43;;;5.90;44.40
72486;BME280;60509;47.308;-122.428;2022-09-09T03:57:50;100962.22;;;7.52;42.85
72486;BME280;60509;47.308;-122.428;2022-09-09T04:00:16;100967.31;;;7.27;42.91
72486;BME280;60509;47.308;-122.428;2022-09-09T04:02:42;100972.23;;;6.63;43.31
72486;BME280;60509;47.308;-122.428;2022-09-09T04:05:09;100974.05;;;6.76;43.65
72486;BME280;60509;47.308;-122.428;2022-09-09T04:07:34;100973.36;;;5.72;44.08
72486;BME280;60509;47.308;-122.428;2022-09-09T04:10:00;100968.65;;;6.54;44.07
72486;BME280;60509;47.308;-122.428;2022-09-09T04:12:26;100969.29;;;6.46;43.73
72486;BME280;60509;47.308;-122.428;2022-09-09T04:14:52;100970.03;;;6.36;43.05
72486;BME280;60509;47.308;-122.428;2022-09-09T04:17:18;100970.06;;;7.70;41.41
72486;BME280;60509;47.308;-122.428;2022-09-09T04:19:44;100971.19;;;7.18;41.92
72486;BME280;60509;47.308;-122.428;2022-09-09T04:22:11;100966.90;;;6.58;42.12
72486;BME280;60509;47.308;-122.428;2022-09-09T04:24:35;100964.22;;;7.24;41.49
72486;BME280;60509;47.308;-122.428;2022-09-09T04:27:01;100964.29;;;7.42;41.47
72486;BME280;60509;47.308;-122.428;2022-09-09T04:29:27;100965.86;;;7.23;42.22
72486;BME280;60509;47.308;-122.428;2022-09-09T04:31:52;100968.83;;;6.85;42.50
72486;BME280;60509;47.308;-122.428;2022-09-09T04:34:17;100971.60;;;6.85;42.48
72486;BME280;60509;47.308;-122.428;2022-09-09T04:36:42;100966.19;;;6.74;42.75
72486;BME280;60509;47.308;-122.428;2022-09-09T04:39:08;100971.69;;;6.06;42.88
72486;BME280;60509;47.308;-122.428;2022-09-09T04:41:32;100972.53;;;7.67;41.93
72486;BME280;60509;47.308;-122.428;2022-09-09T04:43:58;100971.01;;;7.15;42.47
72486;BME280;60509;47.308;-122.428;2022-09-09T04:46:23;100970.62;;;7.11;42.71
72486;BME280;60509;47.308;-122.428;2022-09-09T04:48:48;100969.17;;;7.25;42.98
72486;BME280;60509;47.308;-122.428;2022-09-09T04:51:14;100964.73;;;6.21;43.59
72486;BME280;60509;47.308;-122.428;2022-09-09T04:53:38;100970.33;;;6.75;42.97
72486;BME280;60509;47.308;-122.428;2022-09-09T04:56:04;100966.69;;;6.01;43.86
72486;BME280;60509;47.308;-122.428;2022-09-09T04:58:28;100965.96;;;6.02;43.16
72486;BME280;60509;47.308;-122.428;2022-09-09T05:00:53;100963.54;;;6.57;43.65
72486;BME280;60509;47.308;-122.428;2022-09-09T05:03:18;100963.08;;;6.73;43.05
72486;BME280;60509;47.308;-122.428;2022-09-09T05:05:43;100960.59;;;6.92;43.40
72486;BME280;60509;47.308;-122.428;2022-09-09T05:08:09;100962.76;;;6.31;43.45
72486;BME280;60509;47.308;-122.428;2022-09-09T05:10:34;100965.18;;;5.44;44.22
72486;BME280;60509;47.308;-122.428;2022-09-09T05:12:58;100960.00;;;5.42;44.33
72486;BME280;60509;47.308;-122.428;2022-09-09T05:15:23;100959.46;;;5.75;44.10
72486;BME280;60509;47.308;-122.428;2022-09-09T05:17:48;100959.36;;;5.66;44.45
72486;BME280;60509;47.308;-122.428;2022-09-09T05:20:14;100956.95;;;5.89;44.07
72486;BME280;60509;47.308;-122.428;2022-09-09T05:22:38;100955.37;;;6.00;43.51
72486;BME280;60509;47.308;-122.428;2022-09-09T05:25:04;100960.40;;;5.49;44.33
72486;BME280;60509;47.308;-122.428;2022-09-09T05:27:28;100959.31;;;5.57;44.39
72486;BME280;60509;47.308;-122.428;2022-09-09T05:29:53;100959.23;;;5.34;44.40
72486;BME280;60509;47.308;-122.428;2022-09-09T05:32:18;100958.88;;;5.74;44.37
72486;BME280;60509;47.308;-122.428;2022-09-09T05:34:43;100959.79;;;5.19;44.79
72486;BME280;60509;47.308;-122.428;2022-09-09T05:37:08;100956.93;;;5.19;44.85
72486;BME280;60509;47.308;-122.428;2022-09-09T05:39:33;100952.71;;;5.45;43.95
72486;BME280;60509;47.308;-122.428;2022-09-09T05:41:59;100953.44;;;5.02;44.32
72486;BME280;60509;47.308;-122.428;2022-09-09T05:44:23;100949.12;;;5.66;43.08
72486;BME280;60509;47.308;-122.428;2022-09-09T05:46:48;100949.55;;;5.71;42.58
72486;BME280;60509;47.308;-122.428;2022-09-09T05:49:14;100948.70;;;5.42;42.92
72486;BME280;60509;47.308;-122.428;2022-09-09T05:51:38;100948.71;;;5.07;43.81
72486;BME280;60509;47.308;-122.428;2022-09-09T05:54:04;100946.16;;;6.05;42.53
72486;BME280;60509;47.308;-122.428;2022-09-09T05:56:29;100947.33;;;5.98;42.45
72486;BME280;60509;47.308;-122.428;2022-09-09T05:58:54;100943.98;;;5.70;43.18
72486;BME280;60509;47.308;-122.428;2022-09-09T06:01:21;100940.78;;;4.74;43.73
72486;BME280;60509;47.308;-122.428;2022-09-09T06:03:45;100939.36;;;5.32;43.22
72486;BME280;60509;47.308;-122.428;2022-09-09T06:06:11;100937.12;;;5.04;43.35
72486;BME280;60509;47.308;-122.428;2022-09-09T06:08:34;100939.60;;;5.41;43.03
72486;BME280;60509;47.308;-122.428;2022-09-09T06:11:02;100938.78;;;5.53;43.05
72486;BME280;60509;47.308;-122.428;2022-09-09T06:13:24;100938.59;;;4.66;43.95
72486;BME280;60509;47.308;-122.428;2022-09-09T06:15:50;100932.67;;;5.98;42.67
72486;BME280;60509;47.308;-122.428;2022-09-09T06:18:14;100929.44;;;5.73;42.17
72486;BME280;60509;47.308;-122.428;2022-09-09T06:20:39;100932.37;;;4.71;43.66
72486;BME280;60509;47.308;-122.428;2022-09-09T06:23:04;100931.85;;;5.49;43.17
72486;BME280;60509;47.308;-122.428;2022-09-09T06:25:29;100929.61;;;4.71;43.94
72486;BME280;60509;47.308;-122.428;2022-09-09T06:27:54;100930.81;;;5.71;42.40
72486;BME280;60509;47.308;-122.428;2022-09-09T06:30:19;100927.54;;;5.62;42.44
72486;BME280;60509;47.308;-122.428;2022-09-09T06:32:44;100926.95;;;4.24;44.56
72486;BME280;60509;47.308;-122.428;2022-09-09T06:35:09;100924.72;;;5.36;42.75
72486;BME280;60509;47.308;-122.428;2022-09-09T06:37:34;100924.65;;;5.84;42.00
72486;BME280;60509;47.308;-122.428;2022-09-09T06:40:00;100921.45;;;6.17;41.57
72486;BME280;60509;47.308;-122.428;2022-09-09T06:42:24;100914.69;;;5.23;42.05
72486;BME280;60509;47.308;-122.428;2022-09-09T06:44:50;100908.69;;;5.59;42.03
72486;BME280;60509;47.308;-122.428;2022-09-09T06:47:15;100909.45;;;5.40;42.05
72486;BME280;60509;47.308;-122.428;2022-09-09T06:49:40;100903.33;;;6.08;41.36
72486;BME280;60509;47.308;-122.428;2022-09-09T06:52:05;100901.69;;;5.74;41.80
72486;BME280;60509;47.308;-122.428;2022-09-09T06:54:30;100897.67;;;4.79;43.55
72486;BME280;60509;47.308;-122.428;2022-09-09T06:56:55;100899.72;;;5.22;43.23
72486;BME280;60509;47.308;-122.428;2022-09-09T06:59:20;100898.22;;;5.20;42.19
72486;BME280;60509;47.308;-122.428;2022-09-09T07:01:45;100896.77;;;5.00;42.28
72486;BME280;60509;47.308;-122.428;2022-09-09T07:04:10;100903.11;;;6.14;41.28
72486;BME280;60509;47.308;-122.428;2022-09-09T07:06:37;100902.16;;;4.85;42.76
72486;BME280;60509;47.308;-122.428;2022-09-09T07:09:02;100898.63;;;5.35;42.00
72486;BME280;60509;47.308;-122.428;2022-09-09T07:11:27;100898.12;;;5.52;41.87
72486;BME280;60509;47.308;-122.428;2022-09-09T07:13:50;100894.11;;;4.90;42.43
72486;BME280;60509;47.308;-122.428;2022-09-09T07:16:17;100890.20;;;5.16;41.92
72486;BME280;60509;47.308;-122.428;2022-09-09T07:18:40;100887.21;;;4.53;42.24
72486;BME280;60509;47.308;-122.428;2022-09-09T07:21:05;100892.68;;;5.41;41.60
72486;BME280;60509;47.308;-122.428;2022-09-09T07:23:31;100885.90;;;5.21;41.89
72486;BME280;60509;47.308;-122.428;2022-09-09T07:25:55;100882.23;;;4.41;42.68
72486;BME280;60509;47.308;-122.428;2022-09-09T07:28:26;100876.41;;;5.28;41.20
72486;BME280;60509;47.308;-122.428;2022-09-09T07:30:54;100881.42;;;5.82;41.60
72486;BME280;60509;47.308;-122.428;2022-09-09T07:33:11;100878.40;;;5.06;42.19
72486;BME280;60509;47.308;-122.428;2022-09-09T07:35:36;100878.05;;;4.86;42.98
72486;BME280;60509;47.308;-122.428;2022-09-09T07:38:01;100876.90;;;4.90;43.79
72486;BME280;60509;47.308;-122.428;2022-09-09T07:40:26;100874.89;;;3.93;45.00
72486;BME280;60509;47.308;-122.428;2022-09-09T07:42:51;100870.75;;;4.72;44.23
72486;BME280;60509;47.308;-122.428;2022-09-09T07:45:16;100871.59;;;4.49;43.95
72486;BME280;60509;47.308;-122.428;2022-09-09T07:47:41;100872.47;;;4.93;43.70
72486;BME280;60509;47.308;-122.428;2022-09-09T07:50:07;100874.34;;;4.83;43.97
72486;BME280;60509;47.308;-122.428;2022-09-09T07:52:31;100874.38;;;4.51;44.19
72486;BME280;60509;47.308;-122.428;2022-09-09T07:54:56;100876.91;;;4.78;44.03
72486;BME280;60509;47.308;-122.428;2022-09-09T07:57:22;100879.93;;;3.52;45.44
72486;BME280;60509;47.308;-122.428;2022-09-09T07:59:47;100878.87;;;3.06;46.34
72486;BME280;60509;47.308;-122.428;2022-09-09T08:02:12;100881.00;;;4.85;44.00
72486;BME280;60509;47.308;-122.428;2022-09-09T08:04:37;100886.10;;;4.86;43.72
72486;BME280;60509;47.308;-122.428;2022-09-09T08:07:02;100884.35;;;4.39;44.58
72486;BME280;60509;47.308;-122.428;2022-09-09T08:09:28;100881.72;;;4.21;44.48
72486;BME280;60509;47.308;-122.428;2022-09-09T08:11:52;100871.25;;;5.10;43.42
72486;BME280;60509;47.308;-122.428;2022-09-09T08:14:17;100869.67;;;4.69;43.96
72486;BME280;60509;47.308;-122.428;2022-09-09T08:16:44;100869.58;;;4.47;44.79
72486;BME280;60509;47.308;-122.428;2022-09-09T08:19:08;100869.26;;;3.76;45.30
72486;BME280;60509;47.308;-122.428;2022-09-09T08:21:34;100868.66;;;5.38;43.54
72486;BME280;60509;47.308;-122.428;2022-09-09T08:23:59;100870.47;;;5.25;43.33
72486;BME280;60509;47.308;-122.428;2022-09-09T08:26:24;100869.99;;;4.54;44.13
72486;BME280;60509;47.308;-122.428;2022-09-09T08:28:49;100867.99;;;4.77;43.84
72486;BME280;60509;47.308;-122.428;2022-09-09T08:31:16;100868.16;;;4.42;44.35
72486;BME280;60509;47.308;-122.428;2022-09-09T08:33:38;100863.31;;;3.75;45.27
72486;BME280;60509;47.308;-122.428;2022-09-09T08:36:04;100863.29;;;4.66;44.71
72486;BME280;60509;47.308;-122.428;2022-09-09T08:38:28;100861.72;;;4.30;44.79
72486;BME280;60509;47.308;-122.428;2022-09-09T08:40:56;100858.40;;;4.34;44.85
72486;BME280;60509;47.308;-122.428;2022-09-09T08:43:20;100861.21;;;4.53;44.54
72486;BME280;60509;47.308;-122.428;2022-09-09T08:45:52;100856.93;;;4.99;43.98
72486;BME280;60509;47.308;-122.428;2022-09-09T08:48:27;100860.65;;;4.40;44.78
72486;BME280;60509;47.308;-122.428;2022-09-09T08:50:36;100860.58;;;4.59;43.99
72486;BME280;60509;47.308;-122.428;2022-09-09T08:53:02;100855.15;;;5.48;42.94
72486;BME280;60509;47.308;-122.428;2022-09-09T08:55:31;100854.04;;;3.26;45.93
72486;BME280;60509;47.308;-122.428;2022-09-09T08:57:51;100849.97;;;4.70;44.00
72486;BME280;60509;47.308;-122.428;2022-09-09T09:00:15;100854.31;;;4.40;44.58
72486;BME280;60509;47.308;-122.428;2022-09-09T09:02:45;100852.69;;;3.91;45.01
72486;BME280;60509;47.308;-122.428;2022-09-09T09:05:14;100850.78;;;4.91;43.92
72486;BME280;60509;47.308;-122.428;2022-09-09T09:07:41;100851.62;;;4.91;42.88
72486;BME280;60509;47.308;-122.428;2022-09-09T09:10:00;100850.47;;;4.66;44.05
72486;BME280;60509;47.308;-122.428;2022-09-09T09:12:23;100845.27;;;4.98;43.53
72486;BME280;60509;47.308;-122.428;2022-09-09T09:14:47;100848.38;;;5.33;42.95
72486;BME280;60509;47.308;-122.428;2022-09-09T09:17:13;100848.26;;;4.75;43.99
72486;BME280;60509;47.308;-122.428;2022-09-09T09:19:35;100854.94;;;4.05;45.38
72486;BME280;60509;47.308;-122.428;2022-09-09T09:22:04;100852.32;;;4.67;44.97
72486;BME280;60509;47.308;-122.428;2022-09-09T09:24:30;100852.80;;;5.00;44.33
72486;BME280;60509;47.308;-122.428;2022-09-09T09:26:50;100846.21;;;3.97;45.20
72486;BME280;60509;47.308;-122.428;2022-09-09T09:29:17;100847.55;;;4.49;44.96
72486;BME280;60509;47.308;-122.428;2022-09-09T09:31:43;100847.65;;;4.10;45.28
72486;BME280;60509;47.308;-122.428;2022-09-09T09:34:07;100851.69;;;4.23;45.32
72486;BME280;60509;47.308;-122.428;2022-09-09T09:36:38;100856.90;;;3.74;46.51
72486;BME280;60509;47.308;-122.428;2022-09-09T09:38:57;100852.21;;;4.13;46.11
72486;BME280;60509;47.308;-122.428;2022-09-09T09:41:31;100848.71;;;3.85;45.75
72486;BME280;60509;47.308;-122.428;2022-09-09T09:43:54;100852.03;;;4.86;45.14
72486;BME280;60509;47.308;-122.428;2022-09-09T09:46:20;100853.54;;;5.08;44.80
72486;BME280;60509;47.308;-122.428;2022-09-09T09:48:36;100851.55;;;3.10;46.34
72486;BME280;60509;47.308;-122.428;2022-09-09T09:51:10;100848.46;;;3.97;46.07
72486;BME280;60509;47.308;-122.428;2022-09-09T09:53:28;100844.70;;;4.13;46.06
72486;BME280;60509;47.308;-122.428;2022-09-09T09:55:55;100841.96;;;4.29;46.21
72486;BME280;60509;47.308;-122.428;2022-09-09T09:58:17;100839.28;;;4.47;45.31
72486;BME280;60509;47.308;-122.428;2022-09-09T10:00:48;100841.26;;;4.09;47.28
72486;BME280;60509;47.308;-122.428;2022-09-09T10:03:22;100836.11;;;4.46;46.94
72486;BME280;60509;47.308;-122.428;2022-09-09T10:05:36;100835.22;;;4.41;47.11
72486;BME280;60509;47.308;-122.428;2022-09-09T10:08:09;100832.00;;;4.09;47.10
72486;BME280;60509;47.308;-122.428;2022-09-09T10:10:26;100835.85;;;4.45;46.50
72486;BME280;60509;47.308;-122.428;2022-09-09T10:12:56;100833.87;;;4.33;46.71
72486;BME280;60509;47.308;-122.428;2022-09-09T10:15:26;100828.71;;;3.94;47.00
72486;BME280;60509;47.308;-122.428;2022-09-09T10:17:43;100825.30;;;2.86;48.57
72486;BME280;60509;47.308;-122.428;2022-09-09T10:20:16;100821.93;;;4.48;47.83
72486;BME280;60509;47.308;-122.428;2022-09-09T10:22:30;100819.39;;;3.83;48.97
72486;BME280;60509;47.308;-122.428;2022-09-09T10:25:22;100822.60;;;4.08;49.21
72486;BME280;60509;47.308;-122.428;2022-09-09T10:27:23;100820.23;;;4.63;48.54
72486;BME280;60509;47.308;-122.428;2022-09-09T10:30:01;100818.20;;;3.75;49.11
72486;BME280;60509;47.308;-122.428;2022-09-09T10:32:24;100823.40;;;4.18;48.34
72486;BME280;60509;47.308;-122.428;2022-09-09T10:34:45;100821.37;;;4.75;47.85
72486;BME280;60509;47.308;-122.428;2022-09-09T10:36:59;100818.96;;;3.64;48.90
72486;BME280;60509;47.308;-122.428;2022-09-09T10:39:35;100818.23;;;3.79;47.90
72486;BME280;60509;47.308;-122.428;2022-09-09T10:41:56;100810.64;;;3.63;47.69
72486;BME280;60509;47.308;-122.428;2022-09-09T10:44:26;100809.96;;;4.11;47.74
72486;BME280;60509;47.308;-122.428;2022-09-09T10:46:49;100812.06;;;4.46;47.03
72486;BME280;60509;47.308;-122.428;2022-09-09T10:49:13;100808.24;;;4.26;47.33
72486;BME280;60509;47.308;-122.428;2022-09-09T10:51:35;100813.97;;;4.73;46.86
72486;BME280;60509;47.308;-122.428;2022-09-09T10:54:07;100808.86;;;4.92;47.18
72486;BME280;60509;47.308;-122.428;2022-09-09T10:56:21;100811.92;;;4.10;47.73
72486;BME280;60509;47.308;-122.428;2022-09-09T10:58:47;100809.50;;;3.75;47.87
72486;BME280;60509;47.308;-122.428;2022-09-09T11:01:15;100807.23;;;3.27;49.12
72486;BME280;60509;47.308;-122.428;2022-09-09T11:03:38;100807.98;;;4.06;48.95
72486;BME280;60509;47.308;-122.428;2022-09-09T11:06:03;100807.99;;;2.93;50.25
72486;BME280;60509;47.308;-122.428;2022-09-09T11:08:26;100805.97;;;3.72;49.17
72486;BME280;60509;47.308;-122.428;2022-09-09T11:10:53;100809.33;;;2.23;51.87
72486;BME280;60509;47.308;-122.428;2022-09-09T11:13:18;100801.64;;;3.19;50.55
72486;BME280;60509;47.308;-122.428;2022-09-09T11:15:43;100801.04;;;3.36;50.57
72486;BME280;60509;47.308;-122.428;2022-09-09T11:18:08;100800.34;;;3.18;51.21
72486;BME280;60509;47.308;-122.428;2022-09-09T11:20:30;100799.15;;;4.11;49.43
72486;BME280;60509;47.308;-122.428;2022-09-09T11:22:58;100790.94;;;3.47;50.04
72486;BME280;60509;47.308;-122.428;2022-09-09T11:25:25;100794.35;;;3.58;50.07
72486;BME280;60509;47.308;-122.428;2022-09-09T11:27:58;100799.92;;;3.39;51.30
72486;BME280;60509;47.308;-122.428;2022-09-09T11:30:18;100794.81;;;3.27;50.95
72486;BME280;60509;47.308;-122.428;2022-09-09T11:33:56;100794.55;;;3.95;50.49
72486;BME280;60509;47.308;-122.428;2022-09-09T11:35:14;100792.96;;;4.11;50.09
72486;BME280;60509;47.308;-122.428;2022-09-09T11:37:41;100794.90;;;3.30;51.19
72486;BME280;60509;47.308;-122.428;2022-09-09T11:40:02;100787.29;;;3.71;51.98
72486;BME280;60509;47.308;-122.428;2022-09-09T11:42:24;100777.06;;;3.45;51.52
72486;BME280;60509;47.308;-122.428;2022-09-09T11:44:42;100780.31;;;3.54;51.59
72486;BME280;60509;47.308;-122.428;2022-09-09T11:47:20;100780.79;;;3.41;52.07
72486;BME280;60509;47.308;-122.428;2022-09-09T11:49:41;100778.61;;;3.37;52.63
72486;BME280;60509;47.308;-122.428;2022-09-09T11:51:57;100777.67;;;2.91;53.56
72486;BME280;60509;47.308;-122.428;2022-09-09T11:54:32;100773.13;;;3.34;52.22
72486;BME280;60509;47.308;-122.428;2022-09-09T11:56:47;100775.87;;;2.72;53.14
72486;BME280;60509;47.308;-122.428;2022-09-09T11:59:21;100769.37;;;2.65;53.77
72486;BME280;60509;47.308;-122.428;2022-09-09T12:01:41;100767.70;;;3.45;52.00
72486;BME280;60509;47.308;-122.428;2022-09-09T12:04:16;100764.16;;;3.09;52.70
72486;BME280;60509;47.308;-122.428;2022-09-09T12:06:31;100764.87;;;2.94;53.08
72486;BME280;60509;47.308;-122.428;2022-09-09T12:08:57;100763.95;;;2.27;54.36
72486;BME280;60509;47.308;-122.428;2022-09-09T12:11:26;100766.39;;;3.15;53.01
72486;BME280;60509;47.308;-122.428;2022-09-09T12:13:53;100766.82;;;3.12;53.59
72486;BME280;60509;47.308;-122.428;2022-09-09T12:16:29;100769.74;;;3.54;53.21
72486;BME280;60509;47.308;-122.428;2022-09-09T12:18:36;100765.17;;;3.18;53.71
72486;BME280;60509;47.308;-122.428;2022-09-09T12:21:05;100773.87;;;3.64;53.55
72486;BME280;60509;47.308;-122.428;2022-09-09T12:23:33;100773.75;;;3.34;53.47